createdAt,value
2018-01-31T01:52:20.398Z,6.30
2018-01-31T01:53:19.219Z,7.53
2018-01-31T01:55:45.783Z,8.35
2018-01-31T01:58:12.610Z,8.45
2018-01-31T02:00:39.210Z,8.20
2018-01-31T02:03:05.792Z,9.23
2018-01-31T02:05:32.315Z,9.95
2018-01-31T02:07:59.036Z,10.07
2018-01-31T02:10:25.873Z,9.45
2018-01-31T02:12:52.779Z,8.57
2018-01-31T02:15:19.346Z,9.82
2018-01-31T02:17:46.443Z,11.07
2018-01-31T02:20:13.019Z,8.80
2018-01-31T02:22:39.566Z,9.10
2018-01-31T02:25:06.134Z,7.32
2018-01-31T02:27:32.854Z,7.05
2018-01-31T02:29:59.691Z,6.75
2018-01-31T02:32:26.319Z,6.12
2018-01-31T02:34:52.912Z,6.60
2018-01-31T02:37:19.403Z,7.47
2018-01-31T02:39:54.009Z,6.82
2018-01-31T02:42:20.387Z,6.50
2018-01-31T02:44:46.976Z,6.35
2018-01-31T02:47:13.376Z,5.68
2018-01-31T02:49:40.063Z,6.25
2018-01-31T02:52:06.898Z,6.53
2018-01-31T02:54:33.366Z,6.25
2018-01-31T02:57:00.268Z,6.90
2018-01-31T02:59:26.826Z,5.57
2018-01-31T03:01:53.387Z,6.10
2018-01-31T03:04:19.858Z,6.55
2018-01-31T03:06:46.629Z,6.50
2018-01-31T03:09:13.659Z,5.50
2018-01-31T03:11:40.102Z,6.50
2018-01-31T03:14:06.591Z,6.80
2018-01-31T03:16:34.135Z,6.70
2018-01-31T03:19:01.755Z,7.03
2018-01-31T03:21:28.094Z,7.20
2018-01-31T03:23:54.621Z,7.35
2018-01-31T03:26:21.402Z,6.82
2018-01-31T03:28:48.923Z,10.15
2018-01-31T03:31:15.739Z,14.68
2018-01-31T03:33:42.512Z,17.02
2018-01-31T03:36:09.102Z,15.23
2018-01-31T03:38:36.063Z,13.98
2018-01-31T03:41:02.579Z,14.77
2018-01-31T03:43:29.054Z,14.65
2018-01-31T03:45:55.576Z,14.65
2018-01-31T03:48:22.431Z,12.50
2018-01-31T03:50:48.937Z,13.62
2018-01-31T03:53:15.495Z,13.60
2018-01-31T03:55:42.216Z,13.80
2018-01-31T03:58:09.439Z,13.13
2018-01-31T04:00:35.983Z,13.88
2018-01-31T04:03:02.575Z,12.50
2018-01-31T04:05:29.415Z,12.30
2018-01-31T04:07:55.895Z,11.70
2018-01-31T04:10:22.492Z,12.55
2018-01-31T04:12:48.835Z,11.45
2018-01-31T04:15:15.607Z,12.30
2018-01-31T04:17:42.119Z,11.15
2018-01-31T04:20:09.129Z,10.75
2018-01-31T04:22:35.700Z,11.23
2018-01-31T04:25:02.273Z,12.45
2018-01-31T04:27:28.779Z,12.20
2018-01-31T04:29:55.759Z,13.60
2018-01-31T04:32:22.162Z,12.32
2018-01-31T04:34:48.709Z,12.10
2018-01-31T04:37:15.535Z,12.68
2018-01-31T04:39:42.117Z,14.05
2018-01-31T04:42:08.715Z,13.90
2018-01-31T04:44:35.185Z,13.77
2018-01-31T04:47:01.727Z,14.30
2018-01-31T04:49:28.217Z,14.93
2018-01-31T04:51:54.744Z,16.25
2018-01-31T04:54:21.175Z,14.85
2018-01-31T04:56:47.878Z,13.88
2018-01-31T04:59:15.279Z,14.77
2018-01-31T05:01:42.070Z,15.93
2018-01-31T05:04:08.947Z,15.27
2018-01-31T05:09:24.759Z,18.00
2018-01-31T05:11:51.391Z,19.02
2018-01-31T05:14:19.348Z,20.88
2018-01-31T05:16:46.004Z,21.40
2018-01-31T05:19:12.442Z,22.10
2018-01-31T05:21:39.026Z,20.12
2018-01-31T05:24:05.559Z,22.10
2018-01-31T05:26:33.231Z,24.52
2018-01-31T05:29:00.246Z,24.23
2018-01-31T05:31:27.316Z,23.25
2018-01-31T05:33:54.122Z,25.73
2018-01-31T05:36:20.534Z,37.65
2018-01-31T05:38:47.204Z,27.70
2018-01-31T05:41:13.769Z,27.50
2018-01-31T05:43:40.272Z,30.65
2018-01-31T05:46:07.118Z,29.05
2018-01-31T05:48:33.672Z,26.50
2018-01-31T05:51:00.200Z,27.08
2018-01-31T05:53:26.894Z,27.67
2018-01-31T05:55:53.848Z,26.42
2018-01-31T05:58:20.378Z,28.38
2018-01-31T06:00:47.482Z,28.65
2018-01-31T06:03:14.128Z,28.62
2018-01-31T06:05:40.657Z,28.67
2018-01-31T06:08:07.188Z,28.65
2018-01-31T06:10:33.680Z,31.80
2018-01-31T06:13:00.547Z,30.42
2018-01-31T06:15:27.115Z,31.40
2018-01-31T06:17:53.844Z,35.15
2018-01-31T06:20:20.530Z,34.78
2018-01-31T06:22:47.212Z,32.50
2018-01-31T06:25:14.370Z,32.65
2018-01-31T06:27:40.939Z,35.38
2018-01-31T06:30:07.776Z,37.92
2018-01-31T06:32:34.384Z,33.90
2018-01-31T06:35:00.954Z,32.20
2018-01-31T06:37:27.543Z,31.10
2018-01-31T06:39:53.929Z,28.90
2018-01-31T06:42:20.498Z,33.22
2018-01-31T06:44:47.072Z,36.10
2018-01-31T06:47:13.680Z,35.53
2018-01-31T06:49:40.109Z,35.90
2018-01-31T06:52:06.468Z,34.30
2018-01-31T06:54:32.954Z,34.67
2018-01-31T06:57:00.325Z,38.80
2018-01-31T06:59:27.751Z,29.25
2018-01-31T07:01:54.334Z,29.63
2018-01-31T07:04:20.880Z,33.05
2018-01-31T07:06:47.408Z,27.83
2018-01-31T07:09:13.745Z,28.07
2018-01-31T07:11:41.149Z,30.60
2018-01-31T07:14:07.919Z,22.90
2018-01-31T07:16:34.486Z,23.10
2018-01-31T07:19:01.011Z,23.43
2018-01-31T07:21:27.490Z,23.37
2018-01-31T07:23:54.339Z,21.47
2018-01-31T07:26:20.841Z,25.20
2018-01-31T07:29:03.143Z,26.80
2018-01-31T07:31:29.591Z,28.30
2018-01-31T07:33:56.180Z,27.50
2018-01-31T07:36:22.675Z,26.33
2018-01-31T07:38:49.248Z,27.50
2018-01-31T07:41:15.805Z,23.20
2018-01-31T07:43:42.475Z,25.00
2018-01-31T07:46:09.568Z,23.50
2018-01-31T07:48:36.016Z,23.63
2018-01-31T07:51:03.502Z,26.00
2018-01-31T07:53:30.299Z,26.50
2018-01-31T07:55:56.918Z,28.47
2018-01-31T07:58:24.010Z,43.23
2018-01-31T08:00:50.456Z,41.90
2018-01-31T08:03:18.566Z,44.60
2018-01-31T08:05:44.968Z,57.53
2018-01-31T08:08:11.727Z,63.67
2018-01-31T08:10:38.591Z,59.57
2018-01-31T08:13:05.351Z,89.27
2018-01-31T08:15:31.889Z,57.07
2018-01-31T08:17:58.227Z,58.37
2018-01-31T08:20:24.725Z,58.60
2018-01-31T08:22:51.467Z,61.00
2018-01-31T08:25:18.410Z,59.17
2018-01-31T08:27:45.160Z,58.63
2018-01-31T08:30:12.392Z,65.73
2018-01-31T08:32:38.947Z,62.17
2018-01-31T08:35:05.355Z,58.40
2018-01-31T08:37:31.947Z,56.30
2018-01-31T08:39:58.307Z,63.70
2018-01-31T08:42:25.019Z,60.80
2018-01-31T08:44:51.603Z,64.47
2018-01-31T08:47:18.043Z,61.50
2018-01-31T08:49:44.860Z,53.90
2018-01-31T08:52:11.196Z,54.67
2018-01-31T08:54:37.691Z,55.17
2018-01-31T08:57:04.232Z,50.90
2018-01-31T08:59:30.771Z,61.17
2018-01-31T09:01:57.336Z,84.00
2018-01-31T09:04:23.823Z,38.77
2018-01-31T09:06:50.307Z,31.37
2018-01-31T09:09:16.620Z,34.70
2018-01-31T09:11:43.148Z,35.77
2018-01-31T09:14:09.695Z,34.90
2018-01-31T09:16:37.475Z,35.53
2018-01-31T09:19:03.886Z,39.43
2018-01-31T09:21:30.496Z,35.70
2018-01-31T09:23:56.975Z,36.60
2018-01-31T09:26:23.564Z,43.60
2018-01-31T09:28:50.100Z,39.70
2018-01-31T09:31:16.577Z,37.90
2018-01-31T09:33:43.144Z,34.90
2018-01-31T09:36:09.634Z,33.37
2018-01-31T09:38:36.215Z,36.50
2018-01-31T09:41:03.084Z,34.33
2018-01-31T09:43:29.551Z,32.50
2018-01-31T09:45:56.149Z,30.33
2018-01-31T09:48:22.703Z,32.80
2018-01-31T09:50:49.157Z,35.30
2018-01-31T09:53:18.497Z,29.20
2018-01-31T09:55:42.211Z,27.63
2018-01-31T09:58:08.826Z,27.70
2018-01-31T10:00:36.508Z,26.23
2018-01-31T10:03:03.142Z,21.43
2018-01-31T10:05:29.620Z,17.77
2018-01-31T10:07:57.222Z,16.70
2018-01-31T10:10:24.280Z,17.60
2018-01-31T10:12:50.751Z,17.60
2018-01-31T10:15:17.344Z,16.50
2018-01-31T10:17:44.131Z,18.50
2018-01-31T10:20:10.455Z,17.20
2018-01-31T10:22:37.000Z,16.80
2018-01-31T10:25:03.424Z,19.00
2018-01-31T10:27:30.012Z,18.30
2018-01-31T10:29:56.560Z,18.53
2018-01-31T10:32:23.092Z,20.07
2018-01-31T10:34:49.936Z,21.00
2018-01-31T10:37:16.404Z,21.13
2018-01-31T10:39:42.993Z,22.30
2018-01-31T10:42:09.472Z,22.33
2018-01-31T10:44:35.999Z,22.83
2018-01-31T10:47:02.633Z,21.87
2018-01-31T10:49:28.952Z,20.60
2018-01-31T10:51:55.276Z,18.40
2018-01-31T10:59:14.956Z,19.20
2018-01-31T11:01:41.492Z,19.17
2018-01-31T11:04:07.971Z,20.87
2018-01-31T11:06:34.560Z,22.20
2018-01-31T11:09:01.114Z,22.30
2018-01-31T11:11:27.656Z,22.13
2018-01-31T11:13:54.491Z,20.30
2018-01-31T11:16:21.256Z,20.53
2018-01-31T11:18:47.823Z,19.97
2018-01-31T11:21:15.352Z,21.87
2018-01-31T11:23:41.856Z,21.17
2018-01-31T11:26:08.636Z,18.10
2018-01-31T11:28:35.178Z,19.50
2018-01-31T11:31:02.027Z,19.37
2018-01-31T11:33:28.855Z,17.53
2018-01-31T11:35:55.499Z,18.57
2018-01-31T11:38:21.908Z,17.27
2018-01-31T11:40:48.467Z,19.10
2018-01-31T11:43:15.005Z,18.77
2018-01-31T11:45:41.553Z,21.50
2018-01-31T11:48:08.416Z,16.80
2018-01-31T11:50:35.288Z,17.20
2018-01-31T11:53:01.713Z,37.43
2018-01-31T11:55:28.400Z,15.63
2018-01-31T11:57:54.897Z,16.07
2018-01-31T12:00:21.412Z,16.47
2018-01-31T12:02:47.903Z,16.23
2018-01-31T12:05:14.524Z,15.87
2018-01-31T12:07:41.275Z,16.27
2018-01-31T12:10:08.236Z,19.27
2018-01-31T12:12:46.363Z,18.10
2018-01-31T12:15:22.167Z,18.97
2018-01-31T12:17:48.551Z,19.13
2018-01-31T12:20:27.336Z,19.87
2018-01-31T12:23:06.192Z,19.27
2018-01-31T12:25:44.902Z,20.60
2018-01-31T12:28:23.507Z,19.47
2018-01-31T12:31:02.616Z,19.60
2018-01-31T12:33:41.335Z,18.00
2018-01-31T12:36:19.868Z,18.90
2018-01-31T12:38:58.732Z,18.17
2018-01-31T12:41:24.988Z,22.03
2018-01-31T12:43:52.048Z,20.00
2018-01-31T12:46:30.562Z,17.20
2018-01-31T12:49:00.903Z,31.43
2018-01-31T13:05:02.592Z,15.38
2018-01-31T13:07:41.438Z,17.27
2018-01-31T13:10:20.070Z,14.87
2018-01-31T13:12:58.435Z,15.02
2018-01-31T13:15:37.224Z,15.45
2018-01-31T13:18:16.023Z,15.00
2018-01-31T13:20:54.792Z,13.43
2018-01-31T13:23:21.432Z,13.48
2018-01-31T13:26:00.128Z,14.43
2018-01-31T13:28:43.106Z,14.30
2018-01-31T13:31:22.055Z,13.80
2018-01-31T13:34:01.072Z,13.40
2018-01-31T13:36:40.015Z,14.80
2018-01-31T13:39:18.955Z,12.45
2018-01-31T13:41:57.627Z,12.57
2018-01-31T13:44:36.049Z,12.63
2018-01-31T13:47:14.844Z,13.00
2018-01-31T13:49:53.621Z,13.62
2018-01-31T13:52:32.347Z,14.20
2018-01-31T13:55:10.756Z,14.25
2018-01-31T13:57:49.541Z,15.40
2018-01-31T14:00:28.571Z,15.07
2018-01-31T14:03:07.385Z,13.32
2018-01-31T14:05:46.345Z,13.45
2018-01-31T14:08:25.008Z,14.95
2018-01-31T14:11:04.507Z,13.80
2018-01-31T14:13:43.332Z,16.17
2018-01-31T14:16:21.998Z,28.27
2018-01-31T14:19:01.152Z,16.05
2018-01-31T14:21:41.084Z,17.40
2018-01-31T14:24:20.376Z,18.35
2018-01-31T14:26:59.292Z,16.45
2018-01-31T14:29:37.879Z,15.50
2018-01-31T14:32:16.488Z,18.55
2018-01-31T14:34:55.572Z,15.68
2018-01-31T14:37:21.826Z,14.85
2018-01-31T14:39:48.000Z,18.08
2018-01-31T14:42:14.614Z,17.90
2018-01-31T14:44:41.375Z,16.27
2018-01-31T14:47:07.840Z,23.50
2018-01-31T14:49:34.516Z,18.75
2018-01-31T14:52:00.669Z,20.80
2018-01-31T14:54:27.085Z,16.48
2018-01-31T14:56:53.496Z,17.15
2018-01-31T14:59:19.675Z,19.60
2018-01-31T15:01:45.957Z,21.52
2018-01-31T15:04:12.429Z,24.67
2018-01-31T15:06:38.964Z,22.85
2018-01-31T15:09:05.193Z,31.92
2018-01-31T15:11:31.844Z,35.13
2018-01-31T15:13:59.232Z,26.62
2018-01-31T15:16:25.423Z,28.80
2018-01-31T15:18:51.632Z,23.33
2018-01-31T15:21:17.919Z,29.25
2018-01-31T15:23:45.316Z,28.67
2018-01-31T15:26:12.475Z,28.65
2018-01-31T15:28:38.768Z,27.73
2018-01-31T15:31:04.944Z,28.55
2018-01-31T15:33:31.262Z,27.50
2018-01-31T15:35:57.383Z,26.35
2018-01-31T15:38:23.928Z,28.95
2018-01-31T15:40:50.463Z,27.87
2018-01-31T15:43:16.736Z,26.95
2018-01-31T15:45:42.980Z,26.37
2018-01-31T15:48:09.136Z,29.77
2018-01-31T15:50:35.423Z,28.38
2018-01-31T15:53:01.648Z,31.98
2018-01-31T15:55:27.816Z,32.67
2018-01-31T15:57:54.383Z,32.83
2018-01-31T16:00:20.593Z,32.15
2018-01-31T16:02:46.880Z,32.22
2018-01-31T16:05:13.663Z,31.48
2018-01-31T16:07:39.936Z,31.65
2018-01-31T16:10:06.118Z,30.40
2018-01-31T16:12:32.337Z,32.40
2018-01-31T16:14:58.883Z,31.42
2018-01-31T16:17:25.391Z,32.83
2018-01-31T16:20:04.055Z,36.28
2018-01-31T16:22:31.084Z,35.20
2018-01-31T16:24:57.566Z,33.65
2018-01-31T16:27:24.147Z,40.10
2018-01-31T16:43:13.392Z,53.83
2018-01-31T16:45:39.920Z,53.53
2018-01-31T16:48:06.392Z,54.78
2018-01-31T16:50:32.931Z,56.97
2018-01-31T16:52:59.464Z,65.40
2018-01-31T16:55:26.004Z,68.32
2018-01-31T16:57:52.904Z,66.55
2018-01-31T17:00:19.363Z,66.82
2018-01-31T17:02:45.943Z,63.05
2018-01-31T17:05:12.496Z,69.35
2018-01-31T17:07:38.966Z,122.68
2018-01-31T17:10:05.515Z,145.05
2018-01-31T17:12:32.104Z,123.00
2018-01-31T17:14:58.666Z,112.18
2018-01-31T17:17:25.112Z,115.30
2018-01-31T17:19:51.798Z,100.60
2018-01-31T17:22:18.193Z,98.93
2018-01-31T17:24:44.729Z,104.15
2018-01-31T17:27:11.271Z,90.22
2018-01-31T17:29:37.861Z,74.32
2018-01-31T17:32:04.652Z,91.80
2018-01-31T17:34:31.156Z,84.50
2018-01-31T17:36:57.763Z,90.28
2018-01-31T17:39:24.307Z,94.55
2018-01-31T17:41:51.115Z,96.30
2018-01-31T17:44:17.636Z,89.65
2018-01-31T17:46:44.499Z,98.47
2018-01-31T17:49:11.068Z,92.97
2018-01-31T17:51:38.139Z,89.82
2018-01-31T17:54:04.786Z,87.20
2018-01-31T17:56:31.230Z,87.57
2018-01-31T17:58:58.118Z,80.78
2018-01-31T18:01:24.668Z,78.43
2018-01-31T18:03:51.128Z,76.45
2018-01-31T18:06:17.728Z,75.15
2018-01-31T18:08:44.243Z,87.50
2018-01-31T18:11:11.352Z,89.97
2018-01-31T18:13:37.952Z,98.80
2018-01-31T18:16:04.415Z,101.03
2018-01-31T18:18:30.763Z,99.72
2018-01-31T18:20:57.233Z,90.62
2018-01-31T18:23:23.794Z,85.22
2018-01-31T18:25:50.304Z,89.37
2018-01-31T18:28:17.747Z,87.15
2018-01-31T18:30:44.352Z,89.40
2018-01-31T18:33:10.906Z,93.32
2018-01-31T18:35:37.328Z,89.20
2018-01-31T18:38:03.916Z,87.18
2018-01-31T18:40:30.384Z,87.65
2018-01-31T18:42:57.649Z,86.37
2018-01-31T18:45:24.137Z,83.65
2018-01-31T18:47:50.669Z,85.55
2018-01-31T18:50:17.135Z,86.78
2018-01-31T18:52:43.976Z,89.40
2018-01-31T18:55:10.604Z,92.37
2018-01-31T18:57:37.052Z,86.35
2018-01-31T19:00:03.996Z,82.10
2018-01-31T19:02:30.439Z,80.93
2018-01-31T19:04:56.968Z,83.65
2018-01-31T19:07:23.828Z,80.93
2018-01-31T19:09:50.344Z,79.45
2018-01-31T19:12:16.892Z,75.65
2018-01-31T19:14:43.471Z,75.97
2018-01-31T19:17:10.064Z,76.35
2018-01-31T19:19:36.538Z,71.93
2018-01-31T19:22:03.128Z,72.18
2018-01-31T19:24:30.530Z,75.40
2018-01-31T19:26:57.008Z,85.28
2018-01-31T19:29:23.559Z,84.60
2018-01-31T19:31:50.130Z,84.05
2018-01-31T19:34:17.040Z,87.60
2018-01-31T19:36:43.495Z,96.43
2018-01-31T19:39:09.983Z,93.05
2018-01-31T19:41:36.526Z,90.50
2018-01-31T19:44:03.131Z,86.53
2018-01-31T19:46:29.680Z,80.85
2018-01-31T19:48:56.139Z,79.25
2018-01-31T19:51:22.711Z,81.15
2018-01-31T19:53:49.258Z,80.55
2018-01-31T19:56:16.028Z,75.47
2018-01-31T19:58:42.645Z,82.45
2018-01-31T20:01:09.131Z,77.07
2018-01-31T20:03:35.964Z,78.43
2018-01-31T20:06:02.492Z,79.87
2018-01-31T20:08:29.095Z,82.00
2018-01-31T20:10:55.622Z,84.20
2018-01-31T20:13:22.135Z,92.70
2018-01-31T20:15:48.642Z,117.47
2018-01-31T20:18:15.476Z,108.95
2018-01-31T20:20:42.216Z,117.50
2018-01-31T20:23:09.172Z,113.00
2018-01-31T20:25:36.004Z,99.05
2018-01-31T20:28:02.532Z,92.20
2018-01-31T20:30:29.084Z,86.95
2018-01-31T20:32:55.600Z,75.85
2018-01-31T20:35:22.144Z,70.65
2018-01-31T20:37:48.993Z,70.40
2018-01-31T20:40:15.531Z,79.50
2018-01-31T20:42:42.054Z,110.47
2018-01-31T20:45:08.724Z,103.75
2018-01-31T20:47:35.153Z,110.55
2018-01-31T20:50:01.702Z,109.65
2018-01-31T20:52:28.204Z,112.35
2018-01-31T20:54:54.780Z,106.70
2018-01-31T20:57:21.344Z,86.63
2018-01-31T20:59:48.098Z,100.28
2018-01-31T21:02:14.772Z,115.32
2018-01-31T21:04:41.176Z,114.78
2018-01-31T21:07:07.755Z,107.03
2018-01-31T21:09:34.245Z,90.18
2018-01-31T21:12:03.780Z,84.25
2018-01-31T21:14:30.729Z,79.18
2018-01-31T21:16:57.303Z,76.30
2018-01-31T21:19:24.801Z,79.43
2018-01-31T21:21:51.289Z,93.85
2018-01-31T21:24:17.756Z,92.70
2018-01-31T21:26:44.320Z,88.87
2018-01-31T21:29:11.497Z,95.55
2018-01-31T21:31:38.034Z,91.53
2018-01-31T21:34:04.520Z,101.90
2018-01-31T21:36:31.094Z,138.45
2018-01-31T21:38:57.715Z,176.40
2018-01-31T21:41:24.440Z,238.75
2018-01-31T21:43:50.987Z,218.43
2018-01-31T21:46:18.123Z,222.90
2018-01-31T21:48:44.703Z,222.98
2018-01-31T21:51:11.241Z,154.70
2018-01-31T21:53:38.768Z,195.62
2018-01-31T21:56:06.747Z,216.55
2018-01-31T21:58:33.244Z,214.10
2018-01-31T22:00:59.879Z,206.40
2018-01-31T22:03:26.340Z,191.62
2018-01-31T22:05:52.875Z,172.15
2018-01-31T22:08:20.621Z,175.68
2018-01-31T22:10:47.255Z,163.68
2018-01-31T22:13:13.693Z,152.75
2018-01-31T22:15:40.260Z,230.40
2018-01-31T22:18:06.764Z,300.00
2018-01-31T22:20:33.342Z,292.87
2018-01-31T22:22:59.843Z,280.73
2018-01-31T22:25:26.360Z,309.87
2018-01-31T22:27:53.252Z,316.70
2018-01-31T22:30:19.804Z,346.83
2018-01-31T22:32:46.320Z,350.35
2018-01-31T22:35:12.857Z,324.20
2018-01-31T22:37:39.347Z,289.40
2018-01-31T22:40:05.923Z,328.98
2018-01-31T22:42:32.459Z,347.42
2018-01-31T22:44:58.951Z,339.92
2018-01-31T22:47:25.488Z,324.40
2018-01-31T22:49:52.376Z,325.30
2018-01-31T22:52:19.032Z,317.48
2018-01-31T22:54:46.640Z,299.10
2018-01-31T22:57:13.480Z,298.70
2018-01-31T22:59:40.012Z,294.15
2018-01-31T23:02:06.844Z,255.95
2018-01-31T23:04:33.431Z,272.17
2018-01-31T23:07:00.232Z,272.80
2018-01-31T23:09:26.766Z,272.02
2018-01-31T23:11:53.695Z,271.33
2018-01-31T23:14:26.111Z,267.92
2018-01-31T23:16:52.580Z,272.98
2018-01-31T23:19:19.112Z,260.40
2018-01-31T23:21:45.892Z,249.93
2018-01-31T23:24:12.420Z,252.13
2018-01-31T23:26:39.011Z,208.10
2018-01-31T23:29:05.593Z,211.20
2018-01-31T23:31:32.019Z,203.43
2018-01-31T23:33:58.634Z,198.15
2018-01-31T23:36:25.162Z,183.87
2018-01-31T23:38:51.679Z,201.10
2018-01-31T23:41:18.159Z,220.15
2018-01-31T23:43:44.689Z,228.50
2018-01-31T23:46:11.231Z,191.10
2018-01-31T23:48:37.825Z,218.30
2018-01-31T23:51:04.381Z,187.40
2018-01-31T23:53:30.828Z,184.55
2018-01-31T23:55:57.865Z,156.60
2018-01-31T23:58:24.888Z,187.12
